Malcolm Mc Kinnon Airport Brunswick US
ICAO: KSSI
IATA: SSI
Category: Medium
Scheduled Services: No

Elevation: 19 ft
TransAlt. 18000 ft.

Airport Communications:
ASOS:118.525
JACKSONVILLE CNTR:126.75
CTAF/UNICOM:123.05

KSSI Zoom In..

If you have problems with the map follow the link
https://www.worldairports.se/pages/airport.php?
ICAO=KSSI

Runways:

(A) RW 04 length 5584 ft width 100 ft
---- / hdg 41

(B) RW 16 length 3313 ft width 75 ft
---- / hdg 159

(C) RW 22 length 5584 ft width 100 ft
---- / hdg 221

(D) RW 34 length 3313 ft width 75 ft
---- / hdg 339

Location; KSSI
Day. 19 / Time. 13.22 Zulu
* Altimeter: 30.16
* Temperature: 16° c. 60.8°f.
* Wind from: 330° Speed 05 kn.
Dewpoint: 15° c.
Visibility: 10 Statute Miles.
Clouds: Overcast 400 ft.

KSSI 191322Z AUTO 33005KT 10SM OVC004 16/15 A3016 RMK AO2 T01560150


Wind From 330°
Speed 05 kn.

 
 
jpsmedia.com for Web Design worldairports.se 2018   terms of use